createdAt,value
2018-12-17T00:01:52.950Z,83.73
2018-12-17T00:04:23.698Z,71.97
2018-12-17T00:10:01.438Z,86.77
2018-12-17T00:12:30.622Z,97.10
2018-12-17T00:14:59.734Z,77.83
2018-12-17T00:17:28.841Z,114.83
2018-12-17T00:19:57.902Z,76.50
2018-12-17T00:22:27.022Z,94.05
2018-12-17T00:24:56.044Z,89.03
2018-12-17T00:27:25.111Z,81.37
2018-12-17T00:29:54.251Z,79.20
2018-12-17T00:32:23.236Z,90.90
2018-12-17T00:34:52.175Z,84.57
2018-12-17T00:37:21.226Z,97.90
2018-12-17T00:39:50.231Z,90.70
2018-12-17T00:42:19.210Z,81.00
2018-12-17T00:44:48.222Z,86.63
2018-12-17T00:47:17.123Z,90.45
2018-12-17T00:49:46.115Z,78.63
2018-12-17T00:52:15.102Z,82.90
2018-12-17T00:54:44.105Z,82.03
2018-12-17T00:57:13.174Z,82.50
2018-12-17T00:59:42.310Z,69.50
2018-12-17T01:02:11.449Z,67.12
2018-12-17T01:04:40.393Z,82.90
2018-12-17T01:07:09.450Z,84.63
2018-12-17T01:09:38.442Z,78.87
2018-12-17T01:12:07.434Z,76.00
2018-12-17T01:14:36.430Z,65.93
2018-12-17T01:17:05.408Z,66.63
2018-12-17T01:19:34.457Z,73.47
2018-12-17T01:22:03.396Z,73.90
2018-12-17T01:24:32.446Z,68.33
2018-12-17T01:27:01.303Z,77.10
2018-12-17T01:29:30.294Z,66.90
2018-12-17T01:31:59.304Z,80.07
2018-12-17T01:34:28.312Z,68.53
2018-12-17T01:36:57.355Z,71.80
2018-12-17T01:39:26.562Z,77.23
2018-12-17T01:41:55.927Z,73.90
2018-12-17T01:44:24.859Z,71.20
2018-12-17T01:46:54.013Z,70.07
2018-12-17T01:49:22.920Z,86.08
2018-12-17T01:51:51.836Z,95.63
2018-12-17T01:54:20.844Z,65.13
2018-12-17T01:56:49.891Z,89.47
2018-12-17T01:59:18.815Z,72.67
2018-12-17T02:01:47.832Z,90.20
2018-12-17T02:04:16.799Z,72.40
2018-12-17T02:06:45.785Z,82.53
2018-12-17T02:09:14.642Z,63.63
2018-12-17T02:11:43.846Z,81.03
2018-12-17T02:14:13.151Z,63.35
2018-12-17T02:16:42.374Z,58.03
2018-12-17T02:19:11.455Z,62.65
2018-12-17T02:21:40.436Z,65.63
2018-12-17T02:24:09.367Z,61.33
2018-12-17T02:26:38.352Z,74.47
2018-12-17T02:29:07.343Z,66.37
2018-12-17T02:31:36.753Z,73.90
2018-12-17T02:34:06.628Z,65.52
2018-12-17T02:36:35.766Z,65.28
2018-12-17T02:39:07.811Z,64.05
2018-12-17T02:41:38.739Z,65.13
2018-12-17T02:44:07.914Z,69.07
2018-12-17T02:46:36.722Z,65.37
2018-12-17T02:49:05.912Z,71.57
2018-12-17T02:51:36.684Z,67.97
2018-12-17T02:54:06.154Z,66.83
2018-12-17T02:56:35.253Z,63.77
2018-12-17T02:59:05.138Z,67.42
2018-12-17T03:01:34.182Z,59.70
2018-12-17T03:04:03.059Z,57.10
2018-12-17T03:06:32.139Z,61.70
2018-12-17T03:09:01.017Z,64.27
2018-12-17T03:11:31.885Z,63.83
2018-12-17T03:14:00.859Z,64.17
2018-12-17T03:16:30.094Z,62.37
2018-12-17T03:18:58.871Z,67.70
2018-12-17T03:21:28.003Z,61.50
2018-12-17T03:23:57.218Z,65.30
2018-12-17T03:26:26.156Z,65.87
2018-12-17T03:28:55.191Z,60.53
2018-12-17T03:31:24.341Z,86.23
2018-12-17T03:33:53.811Z,69.07
2018-12-17T03:36:22.721Z,59.05
2018-12-17T03:38:52.131Z,68.43
2018-12-17T03:41:21.026Z,70.92
2018-12-17T03:43:50.119Z,70.37
2018-12-17T03:46:19.075Z,75.50
2018-12-17T03:48:47.989Z,64.23
2018-12-17T03:51:17.058Z,73.57
2018-12-17T03:53:46.059Z,67.77
2018-12-17T03:56:15.116Z,69.90
2018-12-17T03:58:43.949Z,68.37
2018-12-17T04:01:13.044Z,65.90
2018-12-17T04:03:41.931Z,71.17
2018-12-17T04:06:11.008Z,71.90
2018-12-17T04:08:39.933Z,67.37
2018-12-17T04:11:09.147Z,75.30
2018-12-17T04:13:37.900Z,64.47
2018-12-17T04:16:07.024Z,69.63
2018-12-17T04:18:36.364Z,74.20
2018-12-17T04:21:05.568Z,60.00
2018-12-17T04:23:34.494Z,72.50
2018-12-17T04:26:05.331Z,70.00
2018-12-17T04:28:34.332Z,68.07
2018-12-17T04:31:03.464Z,66.67
2018-12-17T04:33:32.306Z,76.40
2018-12-17T04:36:01.716Z,82.23
2018-12-17T04:38:30.706Z,83.70
2018-12-17T04:40:59.587Z,75.87
2018-12-17T04:43:28.575Z,81.30
2018-12-17T04:45:57.627Z,83.73
2018-12-17T04:48:26.643Z,80.73
2018-12-17T04:50:55.552Z,78.10
2018-12-17T04:53:24.694Z,85.73
2018-12-17T04:55:53.610Z,88.03
2018-12-17T04:58:22.554Z,68.57
2018-12-17T05:00:51.594Z,88.00
2018-12-17T05:03:20.509Z,70.60
2018-12-17T05:05:49.499Z,81.90
2018-12-17T05:08:18.733Z,74.30
2018-12-17T05:10:47.576Z,102.30
2018-12-17T05:13:16.492Z,80.90
2018-12-17T05:15:45.639Z,86.50
2018-12-17T05:18:14.623Z,112.10
2018-12-17T05:20:43.542Z,85.87
2018-12-17T05:23:12.533Z,83.85
2018-12-17T05:25:41.522Z,76.00
2018-12-17T05:28:10.558Z,92.57
2018-12-17T05:30:39.510Z,81.30
2018-12-17T05:33:08.598Z,96.07
2018-12-17T05:35:37.405Z,94.57
2018-12-17T05:38:06.462Z,80.37
2018-12-17T05:40:35.626Z,102.13
2018-12-17T05:43:05.237Z,52.73
2018-12-17T05:45:34.312Z,88.37
2018-12-17T05:48:03.717Z,86.47
2018-12-17T05:50:32.661Z,81.00
2018-12-17T05:53:01.598Z,81.73
2018-12-17T05:55:30.658Z,63.83
2018-12-17T05:57:59.578Z,71.77
2018-12-17T06:00:28.702Z,76.03
2018-12-17T06:02:57.803Z,65.57
2018-12-17T06:05:27.078Z,65.37
2018-12-17T06:07:55.837Z,60.55
2018-12-17T06:10:24.783Z,58.60
2018-12-17T06:12:53.825Z,51.27
2018-12-17T06:15:22.814Z,62.33
2018-12-17T06:17:51.897Z,59.33
2018-12-17T06:20:21.335Z,52.90
2018-12-17T06:22:50.934Z,65.83
2018-12-17T06:25:19.628Z,51.07
2018-12-17T06:27:48.394Z,54.37
2018-12-17T06:30:17.463Z,55.60
2018-12-17T06:32:46.374Z,53.27
2018-12-17T06:35:15.491Z,51.85
2018-12-17T06:37:44.455Z,55.23
2018-12-17T06:40:13.430Z,55.80
2018-12-17T06:42:42.346Z,54.40
2018-12-17T06:45:11.347Z,52.97
2018-12-17T06:47:40.416Z,44.70
2018-12-17T06:50:09.470Z,52.20
2018-12-17T06:52:38.550Z,46.08
2018-12-17T06:55:07.545Z,40.60
2018-12-17T06:57:36.287Z,43.17
2018-12-17T07:00:06.558Z,38.13
2018-12-17T07:02:36.215Z,37.47
2018-12-17T07:05:06.216Z,37.90
2018-12-17T07:07:35.038Z,37.53
2018-12-17T07:10:04.511Z,39.10
2018-12-17T07:12:33.487Z,34.77
2018-12-17T07:15:02.387Z,39.33
2018-12-17T07:17:31.321Z,32.37
2018-12-17T07:20:00.380Z,37.77
2018-12-17T07:22:29.752Z,39.13
2018-12-17T07:24:58.595Z,34.05
2018-12-17T07:27:27.650Z,33.87
2018-12-17T07:29:56.666Z,31.33
2018-12-17T07:32:25.595Z,31.60
2018-12-17T07:34:54.643Z,25.90
2018-12-17T07:37:23.842Z,30.80
2018-12-17T07:39:52.923Z,29.98
2018-12-17T07:42:21.861Z,33.18
2018-12-17T07:44:50.900Z,32.20
2018-12-17T07:47:19.884Z,31.40
2018-12-17T07:49:49.971Z,26.53
2018-12-17T07:52:18.895Z,21.33
2018-12-17T07:54:47.718Z,22.40
2018-12-17T07:57:16.736Z,23.83
2018-12-17T07:59:45.710Z,23.27
2018-12-17T08:02:14.780Z,22.87
2018-12-17T08:04:43.918Z,27.45
2018-12-17T08:07:12.674Z,23.67
2018-12-17T08:09:41.679Z,23.23
2018-12-17T08:12:10.693Z,24.13
2018-12-17T08:14:39.812Z,21.93
2018-12-17T08:17:09.662Z,21.47
2018-12-17T08:19:38.579Z,20.53
2018-12-17T08:22:07.630Z,26.60
2018-12-17T08:24:36.626Z,22.53
2018-12-17T08:27:05.711Z,22.03
2018-12-17T08:29:34.598Z,22.53
2018-12-17T08:32:04.602Z,21.30
2018-12-17T08:34:33.463Z,20.87
2018-12-17T08:37:02.431Z,24.93
2018-12-17T08:39:31.502Z,21.70
2018-12-17T08:42:00.415Z,20.77
2018-12-17T08:44:29.554Z,21.20
2018-12-17T08:46:58.479Z,19.40
2018-12-17T08:49:27.411Z,22.90
2018-12-17T08:51:56.472Z,24.90
2018-12-17T08:54:25.401Z,22.70
2018-12-17T08:56:54.460Z,25.70
2018-12-17T08:59:24.286Z,20.80
2018-12-17T09:01:53.419Z,21.70
2018-12-17T09:04:22.365Z,18.10
2018-12-17T09:06:51.330Z,20.20
2018-12-17T09:09:20.274Z,21.13
2018-12-17T09:11:49.076Z,22.57
2018-12-17T09:14:17.939Z,24.83
2018-12-17T09:16:46.924Z,23.13
2018-12-17T09:19:15.995Z,23.47
2018-12-17T09:21:45.056Z,21.30
2018-12-17T09:24:14.056Z,21.43
2018-12-17T09:26:42.992Z,23.73
2018-12-17T09:29:12.027Z,24.20
2018-12-17T09:31:40.875Z,23.67
2018-12-17T09:34:10.809Z,19.90
2018-12-17T09:36:39.784Z,27.83
2018-12-17T09:39:08.864Z,18.50
2018-12-17T09:41:39.766Z,18.13
2018-12-17T09:44:08.615Z,22.97
2018-12-17T09:46:37.807Z,23.27
2018-12-17T09:49:06.592Z,23.87
2018-12-17T09:51:35.578Z,25.40
2018-12-17T09:54:05.322Z,23.20
2018-12-17T09:56:34.339Z,25.77
2018-12-17T09:59:04.238Z,23.43
2018-12-17T10:01:39.669Z,22.83
2018-12-17T10:04:08.607Z,28.95
2018-12-17T10:06:37.542Z,29.77
2018-12-17T10:09:07.142Z,31.20
2018-12-17T10:11:37.955Z,23.90
2018-12-17T10:14:07.197Z,27.80
2018-12-17T10:16:36.371Z,24.63
2018-12-17T10:19:05.315Z,31.17
2018-12-17T10:21:34.458Z,30.83
2018-12-17T10:24:03.783Z,30.67
2018-12-17T10:26:32.907Z,30.35
2018-12-17T10:29:01.828Z,29.30
2018-12-17T10:31:30.892Z,23.67
2018-12-17T10:33:59.879Z,25.20
2018-12-17T10:36:28.799Z,29.10
2018-12-17T10:38:58.028Z,31.83
2018-12-17T10:41:26.808Z,27.93
2018-12-17T10:43:57.694Z,33.47
2018-12-17T10:46:26.698Z,37.47
2018-12-17T10:48:55.620Z,29.40
2018-12-17T10:51:24.601Z,38.35
2018-12-17T10:53:53.617Z,33.47
2018-12-17T10:56:22.639Z,33.13
2018-12-17T10:58:51.570Z,34.13
2018-12-17T11:01:25.885Z,37.15
2018-12-17T11:04:01.058Z,36.87
2018-12-17T11:06:30.063Z,37.20
2018-12-17T11:08:58.987Z,37.50
2018-12-17T11:11:28.042Z,30.03
2018-12-17T11:13:56.992Z,34.00
2018-12-17T11:16:25.968Z,36.70
2018-12-17T11:18:54.954Z,34.37
2018-12-17T11:21:24.012Z,36.97
2018-12-17T11:23:52.863Z,37.10
2018-12-17T11:26:21.856Z,29.35
2018-12-17T11:28:50.930Z,29.07
2018-12-17T11:31:19.899Z,30.90
2018-12-17T11:33:48.828Z,32.73
2018-12-17T11:36:17.974Z,31.13
2018-12-17T11:38:46.904Z,33.77
2018-12-17T11:41:15.815Z,26.50
2018-12-17T11:43:44.875Z,31.77
2018-12-17T11:46:13.815Z,31.97
2018-12-17T11:48:43.003Z,31.03
2018-12-17T11:51:12.222Z,26.90
2018-12-17T11:53:41.150Z,35.23
2018-12-17T11:56:10.214Z,33.07
2018-12-17T11:58:39.147Z,30.97
2018-12-17T12:01:10.879Z,29.27
2018-12-17T12:03:42.486Z,34.00
2018-12-17T12:06:14.338Z,34.92
2018-12-17T12:08:42.090Z,35.17
2018-12-17T12:11:11.160Z,31.73
2018-12-17T12:13:39.943Z,30.00
2018-12-17T12:16:08.852Z,36.87
2018-12-17T12:18:37.858Z,29.20
2018-12-17T12:21:08.297Z,33.50
2018-12-17T12:23:37.402Z,36.90
2018-12-17T12:26:06.270Z,31.27
